Time;durP1;ratioP1;P1;durP2;ratioP2;P2;SDS_P1;SDS_P2;PMS_P1;PMS_P2;Temp;Humidity;BMP_temperature;BMP_pressure;BME280_temperature;BME280_humidity;BME280_pressure;Samples;Min_cycle;Max_cycle;Signal;HPM_P1;HPM_P2
2022/04/18 00:02:29;;;;;;;8.38;4.13;;;;;;;7.04;100.00;101912.31;5367993;27;20027;-76
2022/04/18 00:05:01;;;;;;;5.13;4.32;;;;;;;7.09;100.00;101907.59;5367947;27;20024;-77
2022/04/18 00:07:32;;;;;;;8.18;4.57;;;;;;;7.06;100.00;101901.63;5367000;27;20056;-76
2022/04/18 00:10:04;;;;;;;7.03;3.95;;;;;;;6.88;100.00;101898.28;5368127;27;20102;-76
2022/04/18 00:12:35;;;;;;;6.10;4.28;;;;;;;6.87;100.00;101893.91;5367878;27;20015;-77
2022/04/18 00:15:07;;;;;;;6.50;4.20;;;;;;;6.86;100.00;101893.06;5365027;27;20131;-76
2022/04/18 00:17:38;;;;;;;6.07;4.28;;;;;;;6.76;100.00;101891.91;5362254;27;20035;-77
2022/04/18 00:20:10;;;;;;;5.85;4.32;;;;;;;6.70;100.00;101893.13;5346725;27;20027;-76
2022/04/18 00:22:42;;;;;;;7.35;4.13;;;;;;;6.66;100.00;101885.44;5346423;27;20015;-77
2022/04/18 00:25:13;;;;;;;8.07;3.90;;;;;;;6.60;100.00;101897.28;5355833;27;20050;-77
2022/04/18 00:27:44;;;;;;;6.47;4.82;;;;;;;6.52;100.00;101894.22;5366709;27;20019;-77
2022/04/18 00:30:15;;;;;;;6.25;3.60;;;;;;;6.46;100.00;101889.28;5367332;27;20015;-77
2022/04/18 00:32:47;;;;;;;6.28;4.10;;;;;;;6.36;100.00;101894.25;5367522;27;20051;-77
2022/04/18 00:35:18;;;;;;;4.78;3.40;;;;;;;6.37;100.00;101898.63;5366545;27;20086;-77
2022/04/18 00:37:49;;;;;;;4.50;3.75;;;;;;;6.40;100.00;101904.59;5367493;27;20037;-77
2022/04/18 00:40:21;;;;;;;7.30;4.00;;;;;;;6.19;100.00;101897.91;5367676;27;20105;-77
2022/04/18 00:43:01;;;;;;;6.15;4.10;;;;;;;6.20;100.00;101899.59;5367764;27;20023;-78
2022/04/18 00:45:32;;;;;;;8.13;3.80;;;;;;;6.14;100.00;101892.88;5352475;27;20023;-77
2022/04/18 00:48:04;;;;;;;4.15;3.25;;;;;;;6.17;100.00;101890.03;5344373;27;20039;-77
2022/04/18 00:50:35;;;;;;;5.07;3.63;;;;;;;6.21;100.00;101896.88;5346038;27;20031;-76
2022/04/18 00:53:07;;;;;;;6.18;3.70;;;;;;;6.12;100.00;101896.53;5344653;27;20338;-76
2022/04/18 00:55:39;;;;;;;6.20;3.33;;;;;;;6.11;100.00;101893.03;5357381;27;20456;-77
2022/04/18 00:58:10;;;;;;;4.80;3.03;;;;;;;6.09;100.00;101892.28;5367488;27;20031;-78
2022/04/18 01:00:41;;;;;;;5.85;3.13;;;;;;;6.06;100.00;101889.78;5366307;27;20026;-78
2022/04/18 01:03:13;;;;;;;4.82;3.15;;;;;;;6.12;100.00;101891.22;5367187;27;20018;-78
2022/04/18 01:05:44;;;;;;;6.00;3.35;;;;;;;6.07;100.00;101888.88;5365982;27;20122;-78
2022/04/18 01:08:16;;;;;;;5.68;2.85;;;;;;;6.12;100.00;101881.50;5367734;27;20022;-78
2022/04/18 01:10:47;;;;;;;4.63;3.17;;;;;;;6.13;100.00;101879.69;5365585;27;20049;-75
2022/04/18 01:13:18;;;;;;;4.65;3.35;;;;;;;6.06;100.00;101873.91;5366899;27;20023;-76
2022/04/18 01:15:54;;;;;;;6.43;2.97;;;;;;;6.06;100.00;101880.03;5366969;27;20027;-77
2022/04/18 01:18:25;;;;;;;4.15;2.97;;;;;;;6.05;100.00;101874.84;5366706;27;20049;-76
2022/04/18 01:20:57;;;;;;;3.55;2.45;;;;;;;6.04;100.00;101876.63;5367262;27;20023;-76
2022/04/18 01:23:28;;;;;;;4.03;3.10;;;;;;;5.95;100.00;101876.28;5367113;27;20019;-76
2022/04/18 01:28:59;;;;;;;3.63;2.83;;;;;;;5.78;100.00;101869.28;5357011;27;20032;-76
2022/04/18 01:31:32;;;;;;;5.65;2.88;;;;;;;5.83;100.00;101878.66;5349481;27;20024;-77
2022/04/18 01:34:06;;;;;;;4.30;2.58;;;;;;;5.83;100.00;101885.78;5348945;27;20091;-76
2022/04/18 01:36:37;;;;;;;4.90;2.95;;;;;;;5.69;100.00;101882.09;5348654;27;20098;-76
2022/04/18 01:39:09;;;;;;;7.03;2.95;;;;;;;5.58;100.00;101886.28;5349318;27;20031;-76
2022/04/18 01:41:40;;;;;;;5.28;2.70;;;;;;;5.54;100.00;101892.66;5347903;27;20068;-76
2022/04/18 01:44:12;;;;;;;4.03;2.42;;;;;;;5.37;100.00;101883.03;5349828;27;20112;-76
2022/04/18 01:46:43;;;;;;;3.38;2.85;;;;;;;5.05;100.00;101885.56;5370534;27;20616;-76
2022/04/18 01:49:15;;;;;;;5.13;3.30;;;;;;;4.96;100.00;101894.00;5368791;27;20445;-76
2022/04/18 01:51:46;;;;;;;6.50;2.60;;;;;;;4.95;100.00;101885.22;5370913;27;20023;-76
2022/04/18 01:54:18;;;;;;;5.15;3.30;;;;;;;4.99;100.00;101877.97;5370338;27;20071;-76
2022/04/18 01:56:49;;;;;;;3.92;2.97;;;;;;;5.02;100.00;101876.03;5370383;27;20034;-76
2022/04/18 01:59:20;;;;;;;3.30;3.00;;;;;;;5.10;100.00;101870.31;5369683;27;20027;-76
2022/04/18 02:01:52;;;;;;;3.38;2.72;;;;;;;5.23;100.00;101874.03;5370414;27;20046;-76
2022/04/18 02:04:23;;;;;;;4.97;2.55;;;;;;;5.35;100.00;101869.00;5369373;27;20016;-76
2022/04/18 02:06:54;;;;;;;4.28;2.83;;;;;;;5.37;100.00;101873.28;5370826;27;20502;-76
2022/04/18 02:09:25;;;;;;;3.78;2.80;;;;;;;5.42;100.00;101868.59;5369846;27;20019;-76
2022/04/18 02:11:57;;;;;;;6.32;2.80;;;;;;;5.38;100.00;101863.53;5370839;27;20031;-77
2022/04/18 02:14:28;;;;;;;3.85;2.85;;;;;;;5.32;100.00;101861.25;5366453;27;42412;-76
2022/04/18 02:16:59;;;;;;;4.65;2.50;;;;;;;5.32;100.00;101864.75;5366630;27;20032;-76
2022/04/18 02:19:31;;;;;;;2.85;2.60;;;;;;;5.33;100.00;101862.94;5347883;27;20039;-75
2022/04/18 02:22:02;;;;;;;6.18;2.72;;;;;;;5.14;100.00;101849.84;5348726;27;20111;-76
2022/04/18 02:24:33;;;;;;;4.75;2.47;;;;;;;5.27;100.00;101862.34;5349982;27;20077;-76
2022/04/18 02:27:06;;;;;;;6.90;2.85;;;;;;;4.89;100.00;101848.50;5370057;27;20458;-76
2022/04/18 02:29:37;;;;;;;5.05;2.80;;;;;;;4.85;100.00;101866.34;5367592;27;20027;-76
2022/04/18 02:34:59;;;;;;;3.22;2.70;;;;;;;4.62;100.00;101853.47;5370118;27;20032;-76
2022/04/18 02:37:30;;;;;;;3.28;2.72;;;;;;;4.44;100.00;101853.47;5368438;27;20030;-76
2022/04/18 02:40:01;;;;;;;5.55;2.92;;;;;;;4.34;100.00;101858.34;5369842;27;20072;-76
2022/04/18 02:42:33;;;;;;;5.45;3.17;;;;;;;4.33;100.00;101856.66;5369290;27;20028;-76
2022/04/18 02:45:05;;;;;;;3.88;2.92;;;;;;;4.39;100.00;101847.56;5358129;27;20024;-76
2022/04/18 02:47:36;;;;;;;3.58;2.70;;;;;;;4.33;100.00;101848.75;5346737;27;20130;-76
2022/04/18 02:50:08;;;;;;;6.57;3.33;;;;;;;4.23;100.00;101844.84;5347792;27;20190;-76
2022/04/18 02:52:40;;;;;;;5.35;2.88;;;;;;;4.23;100.00;101833.44;5346056;27;20028;-75
2022/04/18 02:55:11;;;;;;;5.00;2.75;;;;;;;4.25;100.00;101839.50;5355821;27;20026;-76
2022/04/18 02:57:43;;;;;;;3.15;2.20;;;;;;;4.26;100.00;101841.19;5369953;27;20487;-76
2022/04/18 03:00:14;;;;;;;3.55;2.40;;;;;;;4.23;100.00;101836.09;5367814;27;20051;-76
2022/04/18 03:02:45;;;;;;;4.38;3.05;;;;;;;4.24;100.00;101835.97;5368982;27;20014;-76
2022/04/18 03:05:17;;;;;;;6.78;4.28;;;;;;;4.19;100.00;101823.94;5369656;27;20041;-76
2022/04/18 03:07:49;;;;;;;6.50;3.67;;;;;;;4.27;100.00;101819.13;5369427;27;20027;-76
2022/04/18 03:11:02;;;;;;;6.65;4.22;;;;;;;4.25;100.00;101821.00;5369370;27;20035;-76
2022/04/18 03:13:11;;;;;;;7.22;4.10;;;;;;;3.96;100.00;101821.53;5368617;27;20081;-76
2022/04/18 03:15:43;;;;;;;7.22;4.38;;;;;;;3.77;100.00;101826.84;5368604;27;20502;-76
2022/04/18 03:18:14;;;;;;;7.72;3.80;;;;;;;3.65;100.00;101826.59;5367361;27;20445;-77
2022/04/18 03:20:45;;;;;;;5.53;4.05;;;;;;;3.43;100.00;101824.97;5367802;27;20019;-77
2022/04/18 03:23:17;;;;;;;6.70;3.97;;;;;;;3.27;100.00;101824.81;5368816;27;21990;-75
2022/04/18 03:25:48;;;;;;;5.55;3.90;;;;;;;3.15;100.00;101822.75;5369387;27;20027;-76
2022/04/18 03:28:20;;;;;;;6.28;4.10;;;;;;;3.05;100.00;101816.19;5359175;27;20401;-76
2022/04/18 03:30:52;;;;;;;5.20;4.50;;;;;;;2.77;100.00;101814.78;5346504;27;20022;-76
2022/04/18 03:33:23;;;;;;;6.82;4.32;;;;;;;2.72;100.00;101832.56;5347027;27;20024;-76
2022/04/18 03:41:34;;;;;;;6.03;4.35;;;;;;;2.48;100.00;101831.88;5346620;27;20031;-76
2022/04/18 03:44:06;;;;;;;9.15;4.40;;;;;;;2.41;100.00;101834.78;5366007;27;20091;-75
2022/04/18 03:46:37;;;;;;;8.63;4.40;;;;;;;2.35;100.00;101827.16;5345520;27;20384;-75
2022/04/18 03:49:08;;;;;;;7.05;4.60;;;;;;;2.21;100.00;101830.38;5345855;27;20928;-76
2022/04/18 03:51:40;;;;;;;7.00;5.15;;;;;;;2.14;100.00;101820.13;5344968;27;20028;-76
2022/04/18 03:54:11;;;;;;;8.52;5.60;;;;;;;2.26;100.00;101828.41;5347414;27;20069;-76
2022/04/18 03:56:43;;;;;;;8.27;5.60;;;;;;;2.36;100.00;101825.38;5390428;27;20071;-77
2022/04/18 03:59:14;;;;;;;13.02;6.38;;;;;;;2.46;100.00;101827.53;5346353;27;20074;-76
2022/04/18 04:01:45;;;;;;;9.13;6.35;;;;;;;2.20;100.00;101833.06;5357209;27;20094;-77
2022/04/18 04:04:17;;;;;;;9.68;5.28;;;;;;;2.05;100.00;101829.25;5387824;27;20404;-76
2022/04/18 04:06:48;;;;;;;9.18;6.25;;;;;;;2.04;100.00;101833.69;5390175;27;20022;-76
2022/04/18 04:09:19;;;;;;;7.57;5.30;;;;;;;1.95;100.00;101831.44;5389670;27;20034;-76
2022/04/18 04:11:51;;;;;;;7.55;5.90;;;;;;;1.89;100.00;101827.28;5390329;27;20054;-76
2022/04/18 04:14:22;;;;;;;9.77;6.13;;;;;;;1.80;100.00;101830.28;5389162;27;20015;-76
2022/04/18 04:16:54;;;;;;;7.95;5.38;;;;;;;1.69;100.00;101829.84;5385773;27;20027;-77
2022/04/18 04:19:25;;;;;;;9.50;5.90;;;;;;;1.67;100.00;101827.28;5345994;27;20024;-76
2022/04/18 04:21:56;;;;;;;5.93;4.85;;;;;;;1.59;100.00;101817.97;5345405;27;20020;-77
2022/04/18 04:24:28;;;;;;;9.93;6.07;;;;;;;1.55;100.00;101822.50;5349332;27;20405;-77
2022/04/18 04:26:59;;;;;;;10.45;5.72;;;;;;;1.51;100.00;101821.78;5367502;27;20022;-76
2022/04/18 04:29:31;;;;;;;6.57;5.00;;;;;;;1.46;100.00;101817.63;5365483;27;20011;-76
2022/04/18 04:32:03;;;;;;;9.07;5.47;;;;;;;1.33;100.00;101825.09;5366416;27;20038;-76
2022/04/18 04:34:34;;;;;;;7.95;5.63;;;;;;;1.34;100.00;101824.19;5366459;27;20019;-76
2022/04/18 04:37:05;;;;;;;7.63;5.20;;;;;;;1.28;100.00;101825.28;5367642;27;20035;-76
2022/04/18 04:39:37;;;;;;;6.78;5.13;;;;;;;1.25;100.00;101828.03;5366848;27;20028;-76
2022/04/18 04:42:09;;;;;;;8.30;5.90;;;;;;;1.31;100.00;101829.56;5367368;27;21114;-77
2022/04/18 04:44:40;;;;;;;11.32;6.88;;;;;;;1.28;100.00;101827.03;5360936;27;20024;-77
2022/04/18 04:47:12;;;;;;;13.38;7.60;;;;;;;1.27;100.00;101831.47;5345648;27;20043;-77
2022/04/18 04:49:43;;;;;;;9.68;6.68;;;;;;;1.38;100.00;101820.53;5345038;27;20141;-77
2022/04/18 04:52:14;;;;;;;7.65;5.57;;;;;;;1.58;100.00;101827.66;5346024;27;20023;-77
2022/04/18 04:54:46;;;;;;;7.88;5.68;;;;;;;1.67;100.00;101831.69;5350709;27;20022;-77
2022/04/18 04:57:17;;;;;;;6.10;4.68;;;;;;;1.81;100.00;101834.63;5366067;27;20023;-77
2022/04/18 04:59:49;;;;;;;5.47;4.60;;;;;;;2.01;100.00;101836.44;5366931;27;20054;-76
2022/04/18 05:02:20;;;;;;;7.25;4.78;;;;;;;2.05;100.00;101838.03;5365580;27;20375;-77
2022/04/18 05:04:51;;;;;;;8.70;4.90;;;;;;;2.19;100.00;101839.22;5367253;27;20027;-76
2022/04/18 05:07:23;;;;;;;6.82;5.13;;;;;;;2.18;100.00;101840.16;5365562;27;20023;-76
2022/04/18 05:09:54;;;;;;;9.60;5.18;;;;;;;2.37;100.00;101829.72;5367225;27;20023;-76
2022/04/18 05:12:28;;;;;;;5.82;5.05;;;;;;;2.37;100.00;101837.63;5365144;27;20019;-76
2022/04/18 05:15:04;;;;;;;6.70;5.10;;;;;;;2.81;100.00;101833.03;5365293;27;20016;-76
2022/04/18 05:17:35;;;;;;;7.78;5.45;;;;;;;3.20;100.00;101837.44;5366409;27;20023;-77
2022/04/18 05:20:07;;;;;;;6.57;4.50;;;;;;;3.57;100.00;101838.34;5367172;27;20031;-77
2022/04/18 05:22:39;;;;;;;5.72;4.45;;;;;;;3.90;100.00;101840.31;5367250;27;20123;-77
2022/04/18 05:25:10;;;;;;;5.80;3.95;;;;;;;4.31;100.00;101836.53;5364987;27;20160;-77
2022/04/18 05:27:42;;;;;;;5.22;4.20;;;;;;;4.66;100.00;101831.22;5366899;27;20019;-77
2022/04/18 05:30:13;;;;;;;5.70;4.13;;;;;;;5.09;100.00;101831.59;5366750;27;20016;-77
2022/04/18 05:32:45;;;;;;;5.13;3.80;;;;;;;5.56;100.00;101827.25;5366278;27;20396;-77
2022/04/18 05:35:16;;;;;;;7.57;3.80;;;;;;;5.98;100.00;101834.63;5366779;27;20015;-77
2022/04/18 05:37:48;;;;;;;7.80;3.60;;;;;;;6.37;100.00;101838.53;5366495;27;20035;-77
2022/04/18 05:40:20;;;;;;;4.22;3.22;;;;;;;6.85;100.00;101840.97;5348374;27;20032;-77
2022/04/18 05:42:51;;;;;;;4.88;3.13;;;;;;;7.01;100.00;101840.88;5353237;27;20027;-77
2022/04/18 05:45:22;;;;;;;4.57;3.20;;;;;;;7.50;100.00;101836.94;5354668;27;20081;-77
2022/04/18 05:47:54;;;;;;;4.93;3.22;;;;;;;7.98;100.00;101833.84;5344503;27;20489;-77
2022/04/18 05:50:25;;;;;;;4.13;3.17;;;;;;;8.28;100.00;101837.13;5345014;27;20031;-77
2022/04/18 05:52:56;;;;;;;8.93;3.97;;;;;;;8.60;100.00;101836.78;5343117;27;20053;-77
2022/04/18 05:55:35;;;;;;;4.57;3.03;;;;;;;8.85;100.00;101833.28;5356322;27;20022;-77
2022/04/18 05:58:07;;;;;;;3.00;2.47;;;;;;;9.49;100.00;101842.13;5366344;27;20100;-77
2022/04/18 06:00:39;;;;;;;4.00;2.75;;;;;;;9.72;100.00;101829.78;5365871;27;20019;-77
2022/04/18 06:03:11;;;;;;;5.20;2.70;;;;;;;9.99;100.00;101834.88;5366383;27;20019;-77
2022/04/18 06:05:43;;;;;;;4.38;2.60;;;;;;;10.16;100.00;101839.78;5365809;27;20433;-77
2022/04/18 06:08:14;;;;;;;4.20;2.83;;;;;;;10.55;100.00;101839.56;5364890;27;20019;-77
2022/04/18 06:10:45;;;;;;;4.80;2.72;;;;;;;10.91;98.59;101837.72;5366351;27;20019;-78
2022/04/18 06:13:19;;;;;;;2.80;2.50;;;;;;;11.10;89.67;101847.78;5367312;27;20033;-77
2022/04/18 06:15:52;;;;;;;4.93;2.70;;;;;;;11.38;79.80;101837.56;5370018;27;20043;-77
2022/04/18 06:18:23;;;;;;;3.35;2.40;;;;;;;11.73;79.78;101843.56;5354780;27;20062;-77
2022/04/18 06:20:54;;;;;;;2.83;2.63;;;;;;;11.77;73.22;101838.81;5348134;27;20496;-77
2022/04/18 06:23:26;;;;;;;3.20;2.50;;;;;;;12.39;66.90;101837.25;5348316;27;20219;-77
2022/04/18 06:25:57;;;;;;;3.78;2.50;;;;;;;12.71;61.62;101844.38;5364090;27;20018;-77
2022/04/18 06:28:28;;;;;;;3.38;2.55;;;;;;;13.21;61.53;101839.09;5369704;27;20038;-77
2022/04/18 06:31:00;;;;;;;5.13;2.70;;;;;;;13.17;57.30;101840.38;5369441;27;20050;-77
2022/04/18 06:33:34;;;;;;;5.15;2.50;;;;;;;13.53;54.70;101831.88;5364728;27;20114;-77
2022/04/18 06:36:05;;;;;;;3.85;2.47;;;;;;;14.23;51.76;101838.00;5369361;27;20068;-78
2022/04/18 06:38:36;;;;;;;3.25;2.50;;;;;;;14.25;48.32;101838.72;5369756;27;20024;-78
2022/04/18 06:41:09;;;;;;;3.25;2.60;;;;;;;14.85;46.24;101834.97;5369763;27;20399;-77
2022/04/18 06:43:40;;;;;;;3.60;2.47;;;;;;;15.34;45.49;101832.94;5369332;27;20072;-77
2022/04/18 06:46:11;;;;;;;4.93;2.65;;;;;;;15.21;44.21;101830.56;5350447;27;20462;-77
2022/04/18 06:48:43;;;;;;;2.60;2.30;;;;;;;15.20;44.49;101841.47;5347293;27;20129;-78
2022/04/18 06:51:14;;;;;;;3.30;2.60;;;;;;;15.38;44.50;101842.38;5346619;27;20019;-77
2022/04/18 06:53:46;;;;;;;3.85;2.47;;;;;;;15.23;42.39;101841.19;5348081;27;20384;-77
2022/04/18 06:59:07;;;;;;;10.48;2.45;;;;;;;15.32;42.44;101841.16;5367954;27;20051;-77
2022/04/18 07:01:38;;;;;;;4.32;2.70;;;;;;;15.85;41.05;101844.13;5369402;27;20388;-77
2022/04/18 07:04:11;;;;;;;5.20;2.13;;;;;;;16.08;39.47;101828.34;5367040;27;20416;-77
2022/04/18 07:06:43;;;;;;;3.97;2.33;;;;;;;17.24;38.75;101830.81;5363924;27;20020;-77
2022/04/18 07:09:14;;;;;;;2.30;1.98;;;;;;;17.66;38.00;101837.19;5346917;27;20125;-77
2022/04/18 07:11:45;;;;;;;2.72;2.05;;;;;;;18.62;36.47;101833.88;5347245;27;20055;-78
2022/04/18 07:14:17;;;;;;;4.03;2.00;;;;;;;18.58;34.99;101835.22;5367456;27;20080;-77
2022/04/18 07:16:49;;;;;;;2.92;2.03;;;;;;;17.98;34.46;101830.19;5366830;27;20050;-77
2022/04/18 07:19:20;;;;;;;4.13;2.22;;;;;;;18.11;34.57;101842.19;5368338;27;20034;-76
2022/04/18 07:21:52;;;;;;;3.10;2.00;;;;;;;18.45;34.75;101843.84;5369079;27;20019;-77
2022/04/18 07:24:23;;;;;;;2.97;2.10;;;;;;;20.01;33.51;101826.19;5368017;27;20428;-77
2022/04/18 07:27:00;;;;;;;2.03;1.70;;;;;;;20.81;31.13;101818.53;5369068;27;20015;-78
2022/04/18 07:29:32;;;;;;;4.97;1.77;;;;;;;20.41;30.89;101816.03;5368076;27;20030;-77
2022/04/18 07:32:05;;;;;;;3.10;1.60;;;;;;;20.92;30.18;101815.38;5369017;27;20016;-77
2022/04/18 07:34:36;;;;;;;2.33;1.80;;;;;;;22.76;29.72;101820.41;5366124;27;20028;-78
2022/04/18 07:37:08;;;;;;;1.70;1.60;;;;;;;23.33;27.77;101819.22;5367525;27;20088;-78
2022/04/18 07:39:39;;;;;;;2.20;1.92;;;;;;;23.96;26.37;101809.97;5355951;27;20032;-78
2022/04/18 07:42:13;;;;;;;4.53;1.83;;;;;;;24.01;27.03;101810.19;5347025;27;20028;-77
2022/04/18 07:44:45;;;;;;;2.65;1.85;;;;;;;25.28;25.67;101818.19;5350420;27;41517;-78
2022/04/18 07:47:16;;;;;;;4.15;1.63;;;;;;;24.29;24.39;101809.16;5367967;27;20047;-78
2022/04/18 07:49:47;;;;;;;2.40;1.77;;;;;;;26.44;23.31;101815.31;5367935;27;20433;-78
2022/04/18 07:52:18;;;;;;;2.50;1.90;;;;;;;26.05;23.56;101804.50;5369010;27;20733;-77
2022/04/18 07:54:50;;;;;;;2.43;1.70;;;;;;;26.50;21.53;101809.78;5367670;27;37348;-78
2022/04/18 07:57:21;;;;;;;2.33;1.80;;;;;;;26.97;21.23;101807.44;5368437;27;20265;-78
2022/04/18 07:59:52;;;;;;;2.93;1.77;;;;;;;27.05;21.13;101810.91;5366424;27;20027;-78
2022/04/18 08:02:24;;;;;;;2.00;1.75;;;;;;;26.47;21.80;101804.78;5366771;27;20267;-78
2022/04/18 08:04:56;;;;;;;3.03;1.65;;;;;;;27.01;21.52;101809.72;5367578;27;20066;-78
2022/04/18 08:07:27;;;;;;;2.70;1.70;;;;;;;26.58;21.36;101806.78;5368174;27;20050;-78
2022/04/18 08:09:58;;;;;;;3.60;1.77;;;;;;;27.61;20.61;101807.06;5368370;27;20524;-78
2022/04/18 08:12:31;;;;;;;2.10;1.80;;;;;;;26.71;20.38;101813.22;5366589;27;20391;-78
2022/04/18 08:15:04;;;;;;;3.47;1.75;;;;;;;27.75;20.15;101809.59;5367499;27;20249;-78
2022/04/18 08:17:35;;;;;;;3.13;1.88;;;;;;;27.58;20.31;101806.66;5364396;27;20473;-78
2022/04/18 08:20:07;;;;;;;3.20;1.88;;;;;;;25.93;20.60;101809.84;5367890;27;20023;-78
2022/04/18 08:22:38;;;;;;;4.68;1.80;;;;;;;25.76;21.45;101804.06;5367307;27;20107;-78
2022/04/18 08:25:10;;;;;;;3.55;1.95;;;;;;;24.47;21.92;101816.69;5367972;27;20026;-78
2022/04/18 08:27:41;;;;;;;3.80;1.70;;;;;;;25.31;22.21;101812.31;5364001;27;20130;-78
2022/04/18 08:30:13;;;;;;;2.65;1.80;;;;;;;24.20;22.08;101819.44;5345599;27;20095;-78
2022/04/18 08:32:44;;;;;;;2.63;1.60;;;;;;;24.08;22.60;101816.50;5345326;27;20493;-78
2022/04/18 08:35:15;;;;;;;5.45;1.77;;;;;;;23.93;22.72;101808.53;5345007;27;20012;-78
2022/04/18 08:37:48;;;;;;;4.75;1.85;;;;;;;24.02;22.75;101816.47;5345935;27;20397;-78
2022/04/18 08:40:21;;;;;;;2.25;1.63;;;;;;;24.08;22.90;101815.66;5345468;27;20090;-78
2022/04/18 08:42:55;;;;;;;1.63;1.40;;;;;;;23.88;22.75;101816.47;5353870;27;20433;-78
2022/04/18 08:45:27;;;;;;;3.00;1.67;;;;;;;23.95;22.80;101802.88;5354268;27;20081;-78
2022/04/18 08:53:41;;;;;;;2.33;1.73;;;;;;;25.78;21.69;101809.31;5345427;27;20019;-78
2022/04/18 08:56:12;;;;;;;1.80;1.33;;;;;;;26.17;21.20;101802.72;5363704;27;20018;-78
2022/04/18 08:58:43;;;;;;;1.90;1.70;;;;;;;25.56;21.64;101814.28;5367432;27;20027;-78
2022/04/18 09:01:15;;;;;;;2.28;1.65;;;;;;;25.38;21.14;101802.19;5365360;27;20119;-78
2022/04/18 09:03:47;;;;;;;2.35;1.60;;;;;;;25.39;21.46;101803.88;5365255;27;20129;-78
2022/04/18 09:06:24;;;;;;;3.20;1.58;;;;;;;26.09;21.39;101800.28;5365391;27;20019;-78
2022/04/18 09:08:57;;;;;;;2.38;1.55;;;;;;;26.19;20.87;101797.03;5343893;27;20498;-78
2022/04/18 09:11:33;;;;;;;5.32;2.03;;;;;;;26.04;20.37;101802.84;5345772;27;20505;-78
2022/04/18 09:14:18;;;;;;;3.78;1.92;;;;;;;26.50;20.81;101804.31;5380600;27;20015;-78
2022/04/18 09:16:50;;;;;;;1.70;1.38;;;;;;;26.10;20.60;101801.13;5388925;27;20036;-78
2022/04/18 09:19:21;;;;;;;1.70;1.50;;;;;;;26.64;20.11;101805.06;5388490;27;20379;-79
2022/04/18 09:22:00;;;;;;;2.60;1.90;;;;;;;26.92;20.93;101800.97;5387522;27;20023;-78
2022/04/18 09:24:34;;;;;;;2.35;2.03;;;;;;;25.22;21.10;101800.75;5387981;27;20038;-78
2022/04/18 09:27:12;;;;;;;2.00;1.80;;;;;;;25.13;21.74;101804.81;5388383;27;20464;-78
2022/04/18 09:29:43;;;;;;;2.38;1.90;;;;;;;26.33;21.68;101797.75;5387822;27;20533;-78
2022/04/18 09:32:21;;;;;;;2.88;1.70;;;;;;;26.31;21.12;101797.16;5388657;27;20022;-78
2022/04/18 09:35:03;;;;;;;2.05;1.88;;;;;;;27.55;20.21;101799.75;5388246;27;20018;-78
2022/04/18 09:37:36;;;;;;;2.20;1.70;;;;;;;28.02;20.46;101790.84;5388189;27;20126;-78
2022/04/18 09:40:08;;;;;;;3.50;1.98;;;;;;;27.13;20.22;101785.97;5387391;27;20022;-78
2022/04/18 09:42:44;;;;;;;3.10;2.38;;;;;;;27.07;20.89;101786.88;5388465;27;20480;-78
2022/04/18 09:45:17;;;;;;;3.00;1.77;;;;;;;28.92;19.27;101792.38;5377194;27;20023;-78
2022/04/18 09:47:57;;;;;;;4.53;1.88;;;;;;;27.86;19.57;101790.44;5368018;27;20051;-78
2022/04/18 09:53:21;;;;;;;2.75;2.03;;;;;;;31.17;17.57;101783.44;5369784;27;20031;-78
2022/04/18 09:55:56;;;;;;;34.10;5.35;;;;;;;31.30;17.98;101771.16;5375710;27;20028;-78
2022/04/18 09:58:30;;;;;;;;;;;;;;;33.68;16.50;101773.16;5348353;27;20040;-78
2022/04/18 10:01:05;;;;;;;3.83;1.52;;;;;;;29.74;17.48;101771.16;5349101;27;19973;-78
2022/04/18 10:03:38;;;;;;;2.75;1.80;;;;;;;28.45;18.17;101771.31;5369466;27;20035;-78
2022/04/18 10:06:10;;;;;;;2.03;1.63;;;;;;;28.43;18.22;101775.34;5370462;27;20037;-79
2022/04/18 10:08:42;;;;;;;3.67;2.38;;;;;;;27.54;19.03;101771.53;5369618;27;20035;-78
2022/04/18 10:11:14;;;;;;;4.68;1.95;;;;;;;29.20;17.41;101766.03;5370330;27;20069;-78
2022/04/18 10:13:45;;;;;;;2.00;1.80;;;;;;;29.65;16.71;101767.97;5369682;27;20035;-78
2022/04/18 10:16:19;;;;;;;4.30;2.30;;;;;;;30.38;16.79;101758.97;5369395;27;20345;-78
2022/04/18 10:18:56;;;;;;;4.30;2.20;;;;;;;29.50;17.73;101763.03;5368355;27;20631;-78
2022/04/18 10:21:29;;;;;;;2.38;1.73;;;;;;;28.63;17.38;101762.13;5369651;27;20011;-79
2022/04/18 10:24:31;;;;;;;3.33;1.77;;;;;;;29.66;17.94;101753.13;5370175;27;20026;-79
2022/04/18 10:27:23;;;;;;;2.67;1.83;;;;;;;31.87;16.52;101749.66;5367993;27;20046;-79
2022/04/18 10:29:59;;;;;;;3.10;2.40;;;;;;;32.39;15.15;101749.75;5348239;27;20035;-78
2022/04/18 10:32:31;;;;;;;2.40;2.20;;;;;;;33.89;13.73;101749.06;5347498;27;20024;-79
2022/04/18 10:35:03;;;;;;;2.50;2.10;;;;;;;32.85;14.25;101735.34;5347264;27;20023;-79
2022/04/18 10:37:41;;;;;;;2.40;1.98;;;;;;;34.67;13.33;101745.00;5348016;27;20031;-79
2022/04/18 10:40:17;;;;;;;3.55;2.35;;;;;;;35.16;12.75;101746.16;5345978;27;20024;-79
2022/04/18 10:42:48;;;;;;;3.15;2.20;;;;;;;34.41;13.36;101735.97;5354003;27;20019;-78
2022/04/18 10:45:21;;;;;;;3.47;2.40;;;;;;;32.58;14.46;101739.06;5357746;27;20097;-79
2022/04/18 10:47:55;;;;;;;4.43;2.10;;;;;;;33.57;14.95;101734.66;5347464;27;20071;-78
2022/04/18 10:50:37;;;;;;;4.70;2.65;;;;;;;33.39;15.05;101734.09;5347432;27;20051;-79
2022/04/18 10:53:13;;;;;;;4.05;2.38;;;;;;;33.20;13.68;101727.44;5345926;27;20756;-78
2022/04/18 10:55:50;;;;;;;4.43;2.40;;;;;;;32.85;15.14;101724.28;5360866;27;20023;-78
2022/04/18 10:58:24;;;;;;;5.10;2.55;;;;;;;31.61;15.32;101728.22;5367881;27;29213;-79
2022/04/18 11:01:01;;;;;;;7.00;2.83;;;;;;;31.68;15.22;101730.75;5368842;27;20027;-78
2022/04/18 11:03:38;;;;;;;3.40;2.47;;;;;;;30.13;15.79;101725.31;5367805;27;20023;-78
2022/04/18 11:06:15;;;;;;;3.03;2.30;;;;;;;31.07;16.27;101720.78;5368569;27;20119;-78
2022/04/18 11:09:02;;;;;;;3.47;2.28;;;;;;;31.10;15.95;101723.03;5345702;27;29105;-78
2022/04/18 11:11:46;;;;;;;3.30;2.10;;;;;;;34.38;14.38;101716.31;5346722;27;20015;-78
2022/04/18 11:14:24;;;;;;;2.05;1.80;;;;;;;34.80;13.75;101713.13;5365678;27;20484;-78
2022/04/18 11:16:58;;;;;;;3.15;2.00;;;;;;;36.03;12.49;101708.59;5369333;27;20050;-78
2022/04/18 11:19:41;;;;;;;2.67;1.98;;;;;;;36.83;12.58;101709.03;5367079;27;20150;-78
2022/04/18 11:22:18;;;;;;;3.08;2.15;;;;;;;36.81;11.64;101711.28;5347962;27;20073;-78
2022/04/18 11:24:51;;;;;;;4.47;2.28;;;;;;;35.33;13.09;101706.16;5353433;27;20072;-78
2022/04/18 11:27:25;;;;;;;2.20;2.00;;;;;;;34.49;12.45;101704.09;5369194;27;20468;-78
2022/04/18 11:30:15;;;;;;;2.45;1.80;;;;;;;33.13;13.69;101698.13;5366404;27;20027;-79
2022/04/18 11:32:47;;;;;;;1.98;1.70;;;;;;;34.54;14.12;101700.47;5368476;27;20050;-79
2022/04/18 11:35:18;;;;;;;2.28;2.08;;;;;;;35.12;13.47;101691.59;5368981;27;20381;-80
2022/04/18 11:37:50;;;;;;;2.28;2.03;;;;;;;34.91;13.15;101699.22;5369043;27;20027;-78
2022/04/18 11:40:21;;;;;;;2.77;2.07;;;;;;;36.06;13.08;101683.00;5367883;27;20558;-78
2022/04/18 11:42:52;;;;;;;4.28;3.05;;;;;;;36.01;12.46;101693.34;5368784;27;20245;-79
2022/04/18 11:45:25;;;;;;;3.47;2.73;;;;;;;36.69;11.70;101687.53;5355144;27;20445;-79
2022/04/18 11:47:56;;;;;;;3.33;2.70;;;;;;;36.37;11.91;101691.00;5346353;27;20325;-78
2022/04/18 11:50:28;;;;;;;2.63;2.30;;;;;;;34.70;12.49;101688.25;5347003;27;20023;-78
2022/04/18 11:53:04;;;;;;;3.28;2.60;;;;;;;36.59;12.71;101681.25;5346812;27;20281;-78
2022/04/18 11:55:43;;;;;;;3.72;2.42;;;;;;;34.86;13.43;101686.22;5357368;27;20027;-77
2022/04/18 11:58:20;;;;;;;2.45;2.00;;;;;;;34.73;13.18;101689.59;5356446;27;20028;-78
2022/04/18 12:06:46;;;;;;;2.28;1.95;;;;;;;33.99;13.25;101679.03;5368076;27;20503;-78
2022/04/18 12:09:21;;;;;;;3.33;2.35;;;;;;;36.23;12.00;101678.97;5367846;27;20019;-78
2022/04/18 12:11:52;;;;;;;2.58;2.00;;;;;;;36.69;11.53;101681.16;5368287;27;20031;-78
2022/04/18 12:14:29;;;;;;;2.72;2.03;;;;;;;37.20;11.94;101680.41;5367188;27;20023;-78
2022/04/18 12:17:01;;;;;;;2.75;2.38;;;;;;;36.24;11.39;101673.13;5349211;27;20050;-78
2022/04/18 12:19:33;;;;;;;3.38;1.92;;;;;;;36.96;11.50;101671.31;5367342;27;20031;-78